Date,TemperatureHighF,TemperatureAvgF,TemperatureLowF,DewpointHighF,DewpointAvgF,DewpointLowF,HumidityHigh,HumidityAvg,HumidityLow,PressureMaxIn,PressureMinIn,WindSpeedMaxMPH,WindSpeedAvgMPH,GustSpeedMaxMPH,PrecipitationSumIn
2013-10-1,89,82,76,52,49,45,39,32,22,0.00,40.00,9,6,16,0.00
2013-10-2,97,79,67,64,51,38,66,42,14,0.00,40.00,9,4,19,0.00
2013-10-3,95,79,66,61,51,32,78,45,11,0.00,40.00,8,3,18,0.00
2013-10-4,87,76,69,44,31,8,40,23,5,0.00,40.00,17,8,31,0.00
2013-10-5,85,73,67,17,16,11,14,11,6,0.00,40.00,19,13,30,0.00
2013-10-6,92,83,68,21,16,11,12,9,5,0.00,40.00,12,8,21,0.00
2013-10-7,96,89,69,18,15,14,14,7,5,0.00,40.00,4,1,7,0.00
2013-10-8,95,78,56,38,27,21,30,18,7,0.00,40.00,7,3,15,0.00
2013-10-9,79,70,63,45,40,35,49,34,22,0.00,40.00,19,11,27,0.00
2013-10-10,77,66,56,50,38,31,80,40,19,0.00,40.00,14,6,28,0.00
2013-10-11,84,66,51,37,35,28,56,34,14,0.00,40.00,6,2,11,0.00
2013-10-12,90,70,56,38,32,-100,46,29,11,0.00,40.00,7,2,10,0.00
2013-10-13,89,72,57,56,39,30,48,33,12,0.00,40.00,10,3,19,0.00
2013-10-14,89,72,57,37,29,22,47,24,9,0.00,40.00,13,4,22,0.00
2013-10-15,87,72,61,28,25,19,28,18,8,0.00,40.00,11,4,20,0.00
2013-10-17,89,82,65,23,17,13,20,10,6,0.00,40.00,5,3,11,0.00
2013-10-18,81,59,52,23,21,19,30,24,10,0.00,40.00,1,0,6,0.00
2013-10-19,68,34,68,22,-39,-100,17,8,17,0.00,40.00,1,1,6,0.00
2013-10-20,62,57,55,24,23,22,30,27,21,0.00,40.00,1,1,3,0.00
2013-10-21,88,70,53,39,32,25,48,27,10,0.00,40.00,6,2,10,0.00
2013-10-22,62,56,54,27,26,26,34,32,25,0.00,40.00,1,0,3,0.00
2013-10-23,95,88,73,24,21,18,16,10,7,0.00,40.00,4,3,10,0.00
2013-10-24,91,74,56,52,38,31,48,29,14,0.00,40.00,3,1,8,0.00
2013-10-25,92,69,53,58,41,32,64,40,12,0.00,40.00,3,1,12,0.00
2013-10-26,79,63,58,34,28,-100,39,29,17,0.00,40.00,3,0,5,0.00
2013-10-27,91,76,58,33,31,29,33,21,11,0.00,40.00,7,2,14,0.00
2013-10-28,85,72,66,48,43,-100,50,38,20,0.00,40.00,18,12,32,0.00
2013-10-29,74,66,55,44,40,33,60,40,27,0.00,40.00,15,7,24,0.00
2013-10-30,79,63,50,42,34,26,71,39,15,0.00,40.00,7,3,14,0.00
2013-10-31,80,64,50,32,26,20,43,27,11,0.00,40.00,7,2,17,0.00